images/hfc/images/print_logo.png
Drucken
[Quelle: ADDS]
METAR
EDDW 210250Z 09012KT 9999 BKN022 02/M01 Q1016 =
TAF
EDDW 202300Z 2100/2124 10013G23KT 9999 BKN025 TEMPO 2100/2110 BKN014 PROB30 TEMPO 2110/2120 BKN014 BECMG 2120/2122 BKN014 =
BCMT / ECET: 06:19 / 16:02 UTC (EDDW 2018-11-21)

printlogo=no